Terminal Aerodrome Forecast
Issued by NWS Wilmington, OH

Current Version | Previous Version | Text Only | Print | Product List | Glossary Off
Versions: 1 2 3 4 5 6 7 8 9 10 11 12 13 14 15 16 17 18 19

711
FTUS41 KILN 240537
TAFDAY
TAF
KDAY 240537Z 2406/2506 24010KT P6SM VCSH OVC050
     FM240900 21011KT 4SM -SHRA OVC022
     FM241300 22011G19KT P6SM VCSH OVC025
     FM241800 23016G25KT P6SM VCSH OVC035
     FM250000 24013KT P6SM OVC050
     FM250200 24012KT P6SM OVC025=

USA.gov is the U.S. government's official web portal to all federal, state and local government web resources and services.